sensor_id;sensor_type;location;lat;lon;timestamp;P1;durP1;ratioP1;P2;durP2;ratioP2
72117;SDS011;59992;47.490;8.736;2024-01-07T00:02:04;6.20;;;3.20;;
72117;SDS011;59992;47.490;8.736;2024-01-07T00:04:55;5.80;;;3.20;;
72117;SDS011;59992;47.490;8.736;2024-01-07T00:07:45;5.90;;;3.40;;
72117;SDS011;59992;47.490;8.736;2024-01-07T00:10:38;5.60;;;3.40;;
72117;SDS011;59992;47.490;8.736;2024-01-07T00:13:28;7.80;;;3.80;;
72117;SDS011;59992;47.490;8.736;2024-01-07T00:16:18;6.00;;;3.40;;
72117;SDS011;59992;47.490;8.736;2024-01-07T00:19:08;7.20;;;4.30;;
72117;SDS011;59992;47.490;8.736;2024-01-07T00:21:58;6.50;;;3.90;;
72117;SDS011;59992;47.490;8.736;2024-01-07T00:24:49;6.00;;;3.20;;
72117;SDS011;59992;47.490;8.736;2024-01-07T00:27:39;6.10;;;3.50;;
72117;SDS011;59992;47.490;8.736;2024-01-07T00:30:30;6.80;;;4.20;;
72117;SDS011;59992;47.490;8.736;2024-01-07T00:33:20;7.40;;;4.30;;
72117;SDS011;59992;47.490;8.736;2024-01-07T00:36:11;10.50;;;4.10;;
72117;SDS011;59992;47.490;8.736;2024-01-07T00:39:01;6.80;;;4.20;;
72117;SDS011;59992;47.490;8.736;2024-01-07T00:41:51;7.60;;;3.60;;
72117;SDS011;59992;47.490;8.736;2024-01-07T00:44:41;5.10;;;3.30;;
72117;SDS011;59992;47.490;8.736;2024-01-07T00:47:31;7.50;;;4.30;;
72117;SDS011;59992;47.490;8.736;2024-01-07T00:50:22;5.60;;;3.40;;
72117;SDS011;59992;47.490;8.736;2024-01-07T00:53:12;8.10;;;4.50;;
72117;SDS011;59992;47.490;8.736;2024-01-07T00:56:02;8.00;;;3.90;;
72117;SDS011;59992;47.490;8.736;2024-01-07T00:58:53;5.90;;;3.70;;
72117;SDS011;59992;47.490;8.736;2024-01-07T01:01:44;7.30;;;3.70;;
72117;SDS011;59992;47.490;8.736;2024-01-07T01:04:34;5.90;;;3.60;;
72117;SDS011;59992;47.490;8.736;2024-01-07T01:07:28;6.40;;;3.80;;
72117;SDS011;59992;47.490;8.736;2024-01-07T01:10:18;5.90;;;3.80;;
72117;SDS011;59992;47.490;8.736;2024-01-07T01:13:09;6.00;;;3.50;;
72117;SDS011;59992;47.490;8.736;2024-01-07T01:15:58;6.50;;;4.10;;
72117;SDS011;59992;47.490;8.736;2024-01-07T01:18:49;6.60;;;4.00;;
72117;SDS011;59992;47.490;8.736;2024-01-07T01:21:39;6.10;;;3.80;;
72117;SDS011;59992;47.490;8.736;2024-01-07T01:24:29;5.60;;;3.20;;
72117;SDS011;59992;47.490;8.736;2024-01-07T01:27:19;5.40;;;3.40;;
72117;SDS011;59992;47.490;8.736;2024-01-07T01:30:10;4.60;;;3.00;;
72117;SDS011;59992;47.490;8.736;2024-01-07T01:33:01;5.00;;;3.20;;
72117;SDS011;59992;47.490;8.736;2024-01-07T01:35:53;5.90;;;3.50;;
72117;SDS011;59992;47.490;8.736;2024-01-07T01:38:57;6.30;;;3.60;;
72117;SDS011;59992;47.490;8.736;2024-01-07T01:41:47;5.10;;;2.90;;
72117;SDS011;59992;47.490;8.736;2024-01-07T01:44:37;5.50;;;3.30;;
72117;SDS011;59992;47.490;8.736;2024-01-07T01:47:29;5.20;;;2.90;;
72117;SDS011;59992;47.490;8.736;2024-01-07T01:50:20;4.10;;;2.70;;
72117;SDS011;59992;47.490;8.736;2024-01-07T01:53:10;5.40;;;2.90;;
72117;SDS011;59992;47.490;8.736;2024-01-07T01:56:00;4.80;;;2.60;;
72117;SDS011;59992;47.490;8.736;2024-01-07T01:58:51;6.20;;;3.60;;
72117;SDS011;59992;47.490;8.736;2024-01-07T02:01:42;4.60;;;3.00;;
72117;SDS011;59992;47.490;8.736;2024-01-07T02:04:32;5.80;;;3.30;;
72117;SDS011;59992;47.490;8.736;2024-01-07T02:07:23;6.00;;;3.30;;
72117;SDS011;59992;47.490;8.736;2024-01-07T02:10:15;5.10;;;2.90;;
72117;SDS011;59992;47.490;8.736;2024-01-07T02:13:06;3.70;;;2.30;;
72117;SDS011;59992;47.490;8.736;2024-01-07T02:15:56;3.80;;;2.40;;
72117;SDS011;59992;47.490;8.736;2024-01-07T02:18:47;4.40;;;2.70;;
72117;SDS011;59992;47.490;8.736;2024-01-07T02:21:37;5.60;;;3.30;;
72117;SDS011;59992;47.490;8.736;2024-01-07T02:24:27;6.80;;;3.80;;
72117;SDS011;59992;47.490;8.736;2024-01-07T02:27:18;6.70;;;3.50;;
72117;SDS011;59992;47.490;8.736;2024-01-07T02:30:09;5.40;;;3.50;;
72117;SDS011;59992;47.490;8.736;2024-01-07T02:33:02;4.50;;;3.00;;
72117;SDS011;59992;47.490;8.736;2024-01-07T02:35:52;4.90;;;3.20;;
72117;SDS011;59992;47.490;8.736;2024-01-07T02:38:42;5.90;;;3.30;;
72117;SDS011;59992;47.490;8.736;2024-01-07T02:41:32;4.20;;;2.80;;
72117;SDS011;59992;47.490;8.736;2024-01-07T02:44:23;4.80;;;3.20;;
72117;SDS011;59992;47.490;8.736;2024-01-07T02:47:13;5.80;;;3.90;;
72117;SDS011;59992;47.490;8.736;2024-01-07T02:50:03;5.30;;;3.60;;
72117;SDS011;59992;47.490;8.736;2024-01-07T02:52:54;5.50;;;3.50;;
72117;SDS011;59992;47.490;8.736;2024-01-07T02:55:44;4.80;;;2.80;;
72117;SDS011;59992;47.490;8.736;2024-01-07T02:58:35;5.50;;;3.10;;
72117;SDS011;59992;47.490;8.736;2024-01-07T03:01:25;5.10;;;3.10;;
72117;SDS011;59992;47.490;8.736;2024-01-07T03:04:15;5.70;;;3.50;;
72117;SDS011;59992;47.490;8.736;2024-01-07T03:07:06;7.40;;;3.40;;
72117;SDS011;59992;47.490;8.736;2024-01-07T03:09:56;5.00;;;2.80;;
72117;SDS011;59992;47.490;8.736;2024-01-07T03:12:47;5.20;;;3.10;;
72117;SDS011;59992;47.490;8.736;2024-01-07T03:15:36;5.70;;;3.40;;
72117;SDS011;59992;47.490;8.736;2024-01-07T03:18:27;5.80;;;3.20;;
72117;SDS011;59992;47.490;8.736;2024-01-07T03:21:18;5.30;;;3.40;;
72117;SDS011;59992;47.490;8.736;2024-01-07T03:24:10;5.50;;;3.00;;
72117;SDS011;59992;47.490;8.736;2024-01-07T03:27:01;7.90;;;4.40;;
72117;SDS011;59992;47.490;8.736;2024-01-07T03:29:51;6.20;;;3.90;;
72117;SDS011;59992;47.490;8.736;2024-01-07T03:32:41;7.00;;;4.50;;
72117;SDS011;59992;47.490;8.736;2024-01-07T03:35:32;7.40;;;4.20;;
72117;SDS011;59992;47.490;8.736;2024-01-07T03:38:22;5.70;;;3.50;;
72117;SDS011;59992;47.490;8.736;2024-01-07T03:41:16;5.20;;;3.00;;
72117;SDS011;59992;47.490;8.736;2024-01-07T03:44:07;5.50;;;3.30;;
72117;SDS011;59992;47.490;8.736;2024-01-07T03:46:57;6.20;;;3.40;;
72117;SDS011;59992;47.490;8.736;2024-01-07T03:49:48;6.90;;;3.90;;
72117;SDS011;59992;47.490;8.736;2024-01-07T03:52:38;7.50;;;4.00;;
72117;SDS011;59992;47.490;8.736;2024-01-07T03:55:28;5.60;;;3.30;;
72117;SDS011;59992;47.490;8.736;2024-01-07T03:58:18;6.80;;;3.90;;
72117;SDS011;59992;47.490;8.736;2024-01-07T04:01:09;5.30;;;2.80;;
72117;SDS011;59992;47.490;8.736;2024-01-07T04:04:03;7.00;;;4.10;;
72117;SDS011;59992;47.490;8.736;2024-01-07T04:06:53;5.10;;;2.80;;
72117;SDS011;59992;47.490;8.736;2024-01-07T04:09:44;6.30;;;3.50;;
72117;SDS011;59992;47.490;8.736;2024-01-07T04:12:34;6.40;;;3.90;;
72117;SDS011;59992;47.490;8.736;2024-01-07T04:15:25;5.80;;;3.40;;
72117;SDS011;59992;47.490;8.736;2024-01-07T04:18:15;5.50;;;2.70;;
72117;SDS011;59992;47.490;8.736;2024-01-07T04:21:05;5.30;;;3.00;;
72117;SDS011;59992;47.490;8.736;2024-01-07T04:23:58;7.00;;;3.30;;
72117;SDS011;59992;47.490;8.736;2024-01-07T04:26:48;5.70;;;3.00;;
72117;SDS011;59992;47.490;8.736;2024-01-07T04:29:39;5.70;;;3.00;;
72117;SDS011;59992;47.490;8.736;2024-01-07T04:32:29;5.30;;;3.00;;
72117;SDS011;59992;47.490;8.736;2024-01-07T04:35:20;5.40;;;2.90;;
72117;SDS011;59992;47.490;8.736;2024-01-07T04:38:10;5.10;;;3.00;;
72117;SDS011;59992;47.490;8.736;2024-01-07T04:41:00;5.20;;;2.70;;
72117;SDS011;59992;47.490;8.736;2024-01-07T04:43:50;7.80;;;4.20;;
72117;SDS011;59992;47.490;8.736;2024-01-07T04:46:41;7.70;;;3.60;;
72117;SDS011;59992;47.490;8.736;2024-01-07T04:49:31;7.90;;;3.90;;
72117;SDS011;59992;47.490;8.736;2024-01-07T04:52:21;4.90;;;3.00;;
72117;SDS011;59992;47.490;8.736;2024-01-07T04:55:12;5.20;;;3.20;;
72117;SDS011;59992;47.490;8.736;2024-01-07T04:58:02;5.40;;;3.20;;
72117;SDS011;59992;47.490;8.736;2024-01-07T05:00:52;5.40;;;3.10;;
72117;SDS011;59992;47.490;8.736;2024-01-07T05:03:42;7.10;;;3.70;;
72117;SDS011;59992;47.490;8.736;2024-01-07T05:06:32;6.60;;;3.30;;
72117;SDS011;59992;47.490;8.736;2024-01-07T05:09:22;5.40;;;2.90;;
72117;SDS011;59992;47.490;8.736;2024-01-07T05:12:13;5.40;;;3.10;;
72117;SDS011;59992;47.490;8.736;2024-01-07T05:15:03;5.30;;;3.00;;
72117;SDS011;59992;47.490;8.736;2024-01-07T05:17:54;5.90;;;3.40;;
72117;SDS011;59992;47.490;8.736;2024-01-07T05:20:45;7.90;;;3.80;;
72117;SDS011;59992;47.490;8.736;2024-01-07T05:23:35;8.80;;;4.70;;
72117;SDS011;59992;47.490;8.736;2024-01-07T05:26:28;6.50;;;3.80;;
72117;SDS011;59992;47.490;8.736;2024-01-07T05:29:18;8.10;;;4.70;;
72117;SDS011;59992;47.490;8.736;2024-01-07T05:32:08;7.30;;;4.00;;
72117;SDS011;59992;47.490;8.736;2024-01-07T05:34:58;7.80;;;4.30;;
72117;SDS011;59992;47.490;8.736;2024-01-07T05:37:49;6.50;;;3.50;;
72117;SDS011;59992;47.490;8.736;2024-01-07T05:40:39;6.10;;;3.30;;
72117;SDS011;59992;47.490;8.736;2024-01-07T05:43:29;5.10;;;2.90;;
72117;SDS011;59992;47.490;8.736;2024-01-07T05:46:20;7.10;;;3.70;;
72117;SDS011;59992;47.490;8.736;2024-01-07T05:49:10;7.40;;;4.20;;
72117;SDS011;59992;47.490;8.736;2024-01-07T05:52:00;5.60;;;3.10;;
72117;SDS011;59992;47.490;8.736;2024-01-07T05:54:50;7.10;;;3.90;;
72117;SDS011;59992;47.490;8.736;2024-01-07T05:57:42;4.50;;;2.50;;
72117;SDS011;59992;47.490;8.736;2024-01-07T06:00:32;6.10;;;3.40;;
72117;SDS011;59992;47.490;8.736;2024-01-07T06:03:22;6.80;;;3.80;;
72117;SDS011;59992;47.490;8.736;2024-01-07T06:06:13;6.70;;;3.60;;
72117;SDS011;59992;47.490;8.736;2024-01-07T06:09:04;5.90;;;3.10;;
72117;SDS011;59992;47.490;8.736;2024-01-07T06:11:54;5.30;;;3.20;;
72117;SDS011;59992;47.490;8.736;2024-01-07T06:14:44;5.80;;;3.40;;
72117;SDS011;59992;47.490;8.736;2024-01-07T06:17:34;6.70;;;3.70;;
72117;SDS011;59992;47.490;8.736;2024-01-07T06:20:24;6.40;;;3.50;;
72117;SDS011;59992;47.490;8.736;2024-01-07T06:23:15;9.30;;;4.80;;
72117;SDS011;59992;47.490;8.736;2024-01-07T06:26:06;6.10;;;3.30;;
72117;SDS011;59992;47.490;8.736;2024-01-07T06:28:56;6.40;;;3.30;;
72117;SDS011;59992;47.490;8.736;2024-01-07T06:31:46;8.70;;;4.50;;
72117;SDS011;59992;47.490;8.736;2024-01-07T06:34:37;6.90;;;3.60;;
72117;SDS011;59992;47.490;8.736;2024-01-07T06:37:27;8.20;;;4.10;;
72117;SDS011;59992;47.490;8.736;2024-01-07T06:40:18;6.40;;;3.40;;
72117;SDS011;59992;47.490;8.736;2024-01-07T06:43:08;8.60;;;3.60;;
72117;SDS011;59992;47.490;8.736;2024-01-07T06:45:59;6.30;;;3.40;;
72117;SDS011;59992;47.490;8.736;2024-01-07T06:48:50;6.90;;;3.50;;
72117;SDS011;59992;47.490;8.736;2024-01-07T06:51:40;6.80;;;3.20;;
72117;SDS011;59992;47.490;8.736;2024-01-07T06:54:30;6.10;;;2.90;;
72117;SDS011;59992;47.490;8.736;2024-01-07T06:57:20;6.50;;;3.30;;
72117;SDS011;59992;47.490;8.736;2024-01-07T07:00:11;5.90;;;3.20;;
72117;SDS011;59992;47.490;8.736;2024-01-07T07:03:02;7.30;;;3.10;;
72117;SDS011;59992;47.490;8.736;2024-01-07T07:05:53;5.60;;;2.80;;
72117;SDS011;59992;47.490;8.736;2024-01-07T07:08:44;8.00;;;4.50;;
72117;SDS011;59992;47.490;8.736;2024-01-07T07:11:34;10.10;;;4.70;;
72117;SDS011;59992;47.490;8.736;2024-01-07T07:14:25;7.70;;;4.10;;
72117;SDS011;59992;47.490;8.736;2024-01-07T07:17:16;10.30;;;5.20;;
72117;SDS011;59992;47.490;8.736;2024-01-07T07:20:07;8.90;;;4.50;;
72117;SDS011;59992;47.490;8.736;2024-01-07T07:22:58;6.60;;;3.30;;
72117;SDS011;59992;47.490;8.736;2024-01-07T07:25:49;6.50;;;3.20;;
72117;SDS011;59992;47.490;8.736;2024-01-07T07:28:39;8.60;;;4.30;;
72117;SDS011;59992;47.490;8.736;2024-01-07T07:31:29;8.30;;;4.30;;
72117;SDS011;59992;47.490;8.736;2024-01-07T07:34:19;9.40;;;5.10;;
72117;SDS011;59992;47.490;8.736;2024-01-07T07:37:09;6.70;;;3.40;;
72117;SDS011;59992;47.490;8.736;2024-01-07T07:40:00;6.60;;;3.70;;
72117;SDS011;59992;47.490;8.736;2024-01-07T07:42:51;5.80;;;3.20;;
72117;SDS011;59992;47.490;8.736;2024-01-07T07:45:42;5.50;;;3.60;;
72117;SDS011;59992;47.490;8.736;2024-01-07T07:48:32;7.40;;;4.00;;
72117;SDS011;59992;47.490;8.736;2024-01-07T07:51:22;7.80;;;3.90;;
72117;SDS011;59992;47.490;8.736;2024-01-07T07:54:13;6.20;;;3.50;;
72117;SDS011;59992;47.490;8.736;2024-01-07T07:57:05;11.90;;;5.20;;
72117;SDS011;59992;47.490;8.736;2024-01-07T07:59:55;8.20;;;4.40;;
72117;SDS011;59992;47.490;8.736;2024-01-07T08:02:46;9.00;;;4.60;;
72117;SDS011;59992;47.490;8.736;2024-01-07T08:05:37;6.90;;;3.90;;
72117;SDS011;59992;47.490;8.736;2024-01-07T08:08:29;7.30;;;3.50;;
72117;SDS011;59992;47.490;8.736;2024-01-07T08:11:19;6.80;;;3.90;;
72117;SDS011;59992;47.490;8.736;2024-01-07T08:14:10;8.10;;;3.90;;
72117;SDS011;59992;47.490;8.736;2024-01-07T08:17:00;8.10;;;4.10;;
72117;SDS011;59992;47.490;8.736;2024-01-07T08:19:52;9.30;;;5.10;;
72117;SDS011;59992;47.490;8.736;2024-01-07T08:22:42;8.20;;;3.80;;
72117;SDS011;59992;47.490;8.736;2024-01-07T08:25:32;10.30;;;5.10;;
72117;SDS011;59992;47.490;8.736;2024-01-07T08:28:22;11.50;;;5.60;;
72117;SDS011;59992;47.490;8.736;2024-01-07T08:31:12;10.20;;;5.50;;
72117;SDS011;59992;47.490;8.736;2024-01-07T08:34:03;11.00;;;5.20;;
72117;SDS011;59992;47.490;8.736;2024-01-07T08:36:53;7.00;;;3.50;;
72117;SDS011;59992;47.490;8.736;2024-01-07T08:39:43;7.60;;;4.20;;
72117;SDS011;59992;47.490;8.736;2024-01-07T08:42:34;8.70;;;4.40;;
72117;SDS011;59992;47.490;8.736;2024-01-07T08:45:24;9.30;;;5.00;;
72117;SDS011;59992;47.490;8.736;2024-01-07T08:48:15;10.30;;;5.90;;
72117;SDS011;59992;47.490;8.736;2024-01-07T08:51:05;10.40;;;5.30;;
72117;SDS011;59992;47.490;8.736;2024-01-07T08:53:56;8.60;;;5.00;;
72117;SDS011;59992;47.490;8.736;2024-01-07T08:56:47;7.90;;;4.50;;
72117;SDS011;59992;47.490;8.736;2024-01-07T08:59:37;10.70;;;5.50;;
72117;SDS011;59992;47.490;8.736;2024-01-07T09:02:28;9.60;;;5.30;;
72117;SDS011;59992;47.490;8.736;2024-01-07T09:05:19;9.30;;;4.80;;
72117;SDS011;59992;47.490;8.736;2024-01-07T09:08:09;10.50;;;5.40;;
72117;SDS011;59992;47.490;8.736;2024-01-07T09:11:03;9.40;;;5.00;;
72117;SDS011;59992;47.490;8.736;2024-01-07T09:13:54;9.60;;;5.10;;
72117;SDS011;59992;47.490;8.736;2024-01-07T09:16:45;7.20;;;3.80;;
72117;SDS011;59992;47.490;8.736;2024-01-07T09:19:36;9.80;;;5.30;;
72117;SDS011;59992;47.490;8.736;2024-01-07T09:22:29;8.20;;;4.80;;
72117;SDS011;59992;47.490;8.736;2024-01-07T09:25:19;11.50;;;6.30;;
72117;SDS011;59992;47.490;8.736;2024-01-07T09:28:10;10.10;;;5.40;;
72117;SDS011;59992;47.490;8.736;2024-01-07T09:31:00;8.80;;;4.90;;
72117;SDS011;59992;47.490;8.736;2024-01-07T09:33:50;8.90;;;4.90;;
72117;SDS011;59992;47.490;8.736;2024-01-07T09:36:41;9.60;;;5.60;;
72117;SDS011;59992;47.490;8.736;2024-01-07T09:39:32;10.50;;;5.90;;
72117;SDS011;59992;47.490;8.736;2024-01-07T09:42:22;9.70;;;5.20;;
72117;SDS011;59992;47.490;8.736;2024-01-07T09:45:13;10.60;;;5.40;;
72117;SDS011;59992;47.490;8.736;2024-01-07T09:48:05;10.80;;;5.70;;
72117;SDS011;59992;47.490;8.736;2024-01-07T09:50:55;9.60;;;5.70;;
72117;SDS011;59992;47.490;8.736;2024-01-07T09:53:50;10.90;;;5.70;;
72117;SDS011;59992;47.490;8.736;2024-01-07T09:56:46;8.50;;;5.00;;
72117;SDS011;59992;47.490;8.736;2024-01-07T09:59:43;8.00;;;5.00;;
72117;SDS011;59992;47.490;8.736;2024-01-07T10:02:35;9.40;;;4.90;;
72117;SDS011;59992;47.490;8.736;2024-01-07T10:05:28;11.10;;;5.40;;
72117;SDS011;59992;47.490;8.736;2024-01-07T10:08:18;11.10;;;5.70;;
72117;SDS011;59992;47.490;8.736;2024-01-07T10:11:19;9.50;;;5.40;;
72117;SDS011;59992;47.490;8.736;2024-01-07T10:14:10;10.00;;;5.70;;
72117;SDS011;59992;47.490;8.736;2024-01-07T10:17:01;9.30;;;5.40;;
72117;SDS011;59992;47.490;8.736;2024-01-07T10:20:07;9.50;;;5.30;;
72117;SDS011;59992;47.490;8.736;2024-01-07T10:23:01;9.00;;;4.90;;
72117;SDS011;59992;47.490;8.736;2024-01-07T10:25:51;9.40;;;5.40;;
72117;SDS011;59992;47.490;8.736;2024-01-07T10:28:44;8.20;;;4.90;;
72117;SDS011;59992;47.490;8.736;2024-01-07T10:31:37;7.90;;;4.90;;
72117;SDS011;59992;47.490;8.736;2024-01-07T10:34:28;8.00;;;4.80;;
72117;SDS011;59992;47.490;8.736;2024-01-07T10:37:19;10.30;;;5.50;;
72117;SDS011;59992;47.490;8.736;2024-01-07T10:40:11;7.90;;;4.50;;
72117;SDS011;59992;47.490;8.736;2024-01-07T10:43:02;8.50;;;5.00;;
72117;SDS011;59992;47.490;8.736;2024-01-07T10:45:53;7.70;;;4.60;;
72117;SDS011;59992;47.490;8.736;2024-01-07T10:48:46;8.20;;;4.70;;
72117;SDS011;59992;47.490;8.736;2024-01-07T10:51:43;8.70;;;4.80;;
72117;SDS011;59992;47.490;8.736;2024-01-07T10:54:34;7.90;;;4.60;;
72117;SDS011;59992;47.490;8.736;2024-01-07T10:57:27;7.30;;;4.80;;
72117;SDS011;59992;47.490;8.736;2024-01-07T11:00:22;8.20;;;5.10;;
72117;SDS011;59992;47.490;8.736;2024-01-07T11:03:14;8.50;;;5.10;;
72117;SDS011;59992;47.490;8.736;2024-01-07T11:06:14;8.30;;;4.60;;
72117;SDS011;59992;47.490;8.736;2024-01-07T11:09:14;7.10;;;4.20;;
72117;SDS011;59992;47.490;8.736;2024-01-07T11:12:08;8.20;;;4.70;;
72117;SDS011;59992;47.490;8.736;2024-01-07T11:14:59;7.90;;;4.60;;
72117;SDS011;59992;47.490;8.736;2024-01-07T11:17:50;7.70;;;4.80;;
72117;SDS011;59992;47.490;8.736;2024-01-07T11:20:40;7.30;;;4.70;;
72117;SDS011;59992;47.490;8.736;2024-01-07T11:23:31;7.80;;;4.60;;
72117;SDS011;59992;47.490;8.736;2024-01-07T11:26:25;7.50;;;4.50;;
72117;SDS011;59992;47.490;8.736;2024-01-07T11:29:18;6.70;;;4.10;;
72117;SDS011;59992;47.490;8.736;2024-01-07T11:32:09;8.20;;;5.00;;
72117;SDS011;59992;47.490;8.736;2024-01-07T11:35:05;8.20;;;4.80;;
72117;SDS011;59992;47.490;8.736;2024-01-07T11:37:56;9.20;;;5.20;;
72117;SDS011;59992;47.490;8.736;2024-01-07T11:40:47;9.20;;;4.50;;
72117;SDS011;59992;47.490;8.736;2024-01-07T11:43:39;8.20;;;5.00;;
72117;SDS011;59992;47.490;8.736;2024-01-07T11:46:42;8.10;;;4.50;;
72117;SDS011;59992;47.490;8.736;2024-01-07T11:49:33;7.50;;;4.40;;
72117;SDS011;59992;47.490;8.736;2024-01-07T11:52:23;7.30;;;4.00;;
72117;SDS011;59992;47.490;8.736;2024-01-07T11:55:13;7.20;;;4.40;;
72117;SDS011;59992;47.490;8.736;2024-01-07T11:58:04;7.10;;;4.10;;
72117;SDS011;59992;47.490;8.736;2024-01-07T12:00:55;6.80;;;3.90;;
72117;SDS011;59992;47.490;8.736;2024-01-07T12:03:45;8.00;;;4.90;;
72117;SDS011;59992;47.490;8.736;2024-01-07T12:06:36;7.60;;;4.70;;
72117;SDS011;59992;47.490;8.736;2024-01-07T12:09:26;9.20;;;4.70;;
72117;SDS011;59992;47.490;8.736;2024-01-07T12:12:16;7.50;;;4.60;;
72117;SDS011;59992;47.490;8.736;2024-01-07T12:15:07;7.10;;;4.50;;
72117;SDS011;59992;47.490;8.736;2024-01-07T12:17:59;7.90;;;4.70;;
72117;SDS011;59992;47.490;8.736;2024-01-07T12:20:57;7.70;;;4.80;;
72117;SDS011;59992;47.490;8.736;2024-01-07T12:23:50;7.80;;;4.10;;
72117;SDS011;59992;47.490;8.736;2024-01-07T12:26:41;7.90;;;4.60;;
72117;SDS011;59992;47.490;8.736;2024-01-07T12:29:31;9.30;;;4.50;;
72117;SDS011;59992;47.490;8.736;2024-01-07T12:32:22;8.60;;;5.40;;
72117;SDS011;59992;47.490;8.736;2024-01-07T12:35:14;9.30;;;4.50;;
72117;SDS011;59992;47.490;8.736;2024-01-07T12:38:05;7.80;;;4.60;;
72117;SDS011;59992;47.490;8.736;2024-01-07T12:40:56;8.30;;;4.70;;
72117;SDS011;59992;47.490;8.736;2024-01-07T12:43:46;8.10;;;4.80;;
72117;SDS011;59992;47.490;8.736;2024-01-07T12:46:37;7.80;;;4.80;;
72117;SDS011;59992;47.490;8.736;2024-01-07T12:49:28;9.30;;;5.00;;
72117;SDS011;59992;47.490;8.736;2024-01-07T12:52:18;8.20;;;4.60;;
72117;SDS011;59992;47.490;8.736;2024-01-07T12:55:08;9.10;;;4.60;;
72117;SDS011;59992;47.490;8.736;2024-01-07T12:57:59;8.20;;;4.90;;
72117;SDS011;59992;47.490;8.736;2024-01-07T13:00:50;9.10;;;5.30;;
72117;SDS011;59992;47.490;8.736;2024-01-07T13:03:40;8.20;;;4.90;;
72117;SDS011;59992;47.490;8.736;2024-01-07T13:06:30;10.40;;;5.40;;
72117;SDS011;59992;47.490;8.736;2024-01-07T13:09:21;8.00;;;4.70;;
72117;SDS011;59992;47.490;8.736;2024-01-07T13:12:11;9.00;;;4.80;;
72117;SDS011;59992;47.490;8.736;2024-01-07T13:15:02;8.10;;;4.50;;
72117;SDS011;59992;47.490;8.736;2024-01-07T13:17:53;8.90;;;5.00;;
72117;SDS011;59992;47.490;8.736;2024-01-07T13:20:44;8.10;;;4.80;;
72117;SDS011;59992;47.490;8.736;2024-01-07T13:23:34;9.00;;;4.70;;
72117;SDS011;59992;47.490;8.736;2024-01-07T13:26:25;8.80;;;5.00;;
72117;SDS011;59992;47.490;8.736;2024-01-07T13:29:16;8.40;;;4.40;;
72117;SDS011;59992;47.490;8.736;2024-01-07T13:32:07;9.50;;;5.10;;
72117;SDS011;59992;47.490;8.736;2024-01-07T13:34:57;8.30;;;4.70;;
72117;SDS011;59992;47.490;8.736;2024-01-07T13:37:47;9.70;;;5.10;;
72117;SDS011;59992;47.490;8.736;2024-01-07T13:40:38;8.80;;;5.30;;
72117;SDS011;59992;47.490;8.736;2024-01-07T13:43:29;9.70;;;5.80;;
72117;SDS011;59992;47.490;8.736;2024-01-07T13:46:19;9.80;;;5.50;;
72117;SDS011;59992;47.490;8.736;2024-01-07T13:49:11;9.70;;;5.70;;
72117;SDS011;59992;47.490;8.736;2024-01-07T13:52:01;12.20;;;6.80;;
72117;SDS011;59992;47.490;8.736;2024-01-07T13:54:52;14.40;;;7.10;;
72117;SDS011;59992;47.490;8.736;2024-01-07T13:57:42;10.70;;;6.30;;
72117;SDS011;59992;47.490;8.736;2024-01-07T14:00:32;9.90;;;6.00;;
72117;SDS011;59992;47.490;8.736;2024-01-07T14:03:23;11.80;;;6.40;;
72117;SDS011;59992;47.490;8.736;2024-01-07T14:06:14;9.50;;;5.90;;
72117;SDS011;59992;47.490;8.736;2024-01-07T14:09:04;9.50;;;5.30;;
72117;SDS011;59992;47.490;8.736;2024-01-07T14:11:56;10.40;;;5.90;;
72117;SDS011;59992;47.490;8.736;2024-01-07T14:14:47;10.70;;;6.00;;
72117;SDS011;59992;47.490;8.736;2024-01-07T14:17:37;9.60;;;5.60;;
72117;SDS011;59992;47.490;8.736;2024-01-07T14:20:27;13.30;;;6.80;;
72117;SDS011;59992;47.490;8.736;2024-01-07T14:23:18;10.90;;;6.40;;
72117;SDS011;59992;47.490;8.736;2024-01-07T14:26:08;12.50;;;7.50;;
72117;SDS011;59992;47.490;8.736;2024-01-07T14:28:58;11.80;;;6.40;;
72117;SDS011;59992;47.490;8.736;2024-01-07T14:31:49;10.60;;;6.10;;
72117;SDS011;59992;47.490;8.736;2024-01-07T14:34:39;10.60;;;5.00;;
72117;SDS011;59992;47.490;8.736;2024-01-07T14:37:32;10.90;;;5.80;;
72117;SDS011;59992;47.490;8.736;2024-01-07T14:40:23;11.70;;;6.10;;
72117;SDS011;59992;47.490;8.736;2024-01-07T14:43:13;11.10;;;6.10;;
72117;SDS011;59992;47.490;8.736;2024-01-07T14:46:03;13.50;;;6.80;;
72117;SDS011;59992;47.490;8.736;2024-01-07T14:48:54;9.40;;;5.10;;
72117;SDS011;59992;47.490;8.736;2024-01-07T14:51:45;11.30;;;6.00;;
72117;SDS011;59992;47.490;8.736;2024-01-07T14:54:36;12.10;;;6.30;;
72117;SDS011;59992;47.490;8.736;2024-01-07T14:57:26;10.10;;;5.40;;
72117;SDS011;59992;47.490;8.736;2024-01-07T15:00:16;17.50;;;6.80;;
72117;SDS011;59992;47.490;8.736;2024-01-07T15:03:07;13.10;;;5.50;;
72117;SDS011;59992;47.490;8.736;2024-01-07T15:05:57;32.70;;;8.30;;
72117;SDS011;59992;47.490;8.736;2024-01-07T15:08:48;9.10;;;4.90;;
72117;SDS011;59992;47.490;8.736;2024-01-07T15:11:39;18.30;;;6.60;;
72117;SDS011;59992;47.490;8.736;2024-01-07T15:14:32;18.60;;;6.70;;
72117;SDS011;59992;47.490;8.736;2024-01-07T15:17:23;20.40;;;7.50;;
72117;SDS011;59992;47.490;8.736;2024-01-07T15:20:14;16.00;;;6.60;;
72117;SDS011;59992;47.490;8.736;2024-01-07T15:23:05;13.70;;;6.50;;
72117;SDS011;59992;47.490;8.736;2024-01-07T15:25:55;16.90;;;6.10;;
72117;SDS011;59992;47.490;8.736;2024-01-07T15:28:46;20.00;;;9.10;;
72117;SDS011;59992;47.490;8.736;2024-01-07T15:31:36;25.80;;;8.60;;
72117;SDS011;59992;47.490;8.736;2024-01-07T15:34:27;15.30;;;6.90;;
72117;SDS011;59992;47.490;8.736;2024-01-07T15:37:18;13.70;;;6.30;;
72117;SDS011;59992;47.490;8.736;2024-01-07T15:40:09;13.40;;;6.30;;
72117;SDS011;59992;47.490;8.736;2024-01-07T15:43:04;14.70;;;6.90;;
72117;SDS011;59992;47.490;8.736;2024-01-07T15:45:55;18.20;;;7.40;;
72117;SDS011;59992;47.490;8.736;2024-01-07T15:48:46;13.70;;;6.30;;
72117;SDS011;59992;47.490;8.736;2024-01-07T15:51:37;11.70;;;5.80;;
72117;SDS011;59992;47.490;8.736;2024-01-07T15:54:28;10.20;;;4.70;;
72117;SDS011;59992;47.490;8.736;2024-01-07T15:57:19;9.80;;;4.70;;
72117;SDS011;59992;47.490;8.736;2024-01-07T16:00:10;11.50;;;5.50;;
72117;SDS011;59992;47.490;8.736;2024-01-07T16:03:01;11.40;;;5.30;;
72117;SDS011;59992;47.490;8.736;2024-01-07T16:05:52;9.90;;;4.80;;
72117;SDS011;59992;47.490;8.736;2024-01-07T16:08:43;10.00;;;5.00;;
72117;SDS011;59992;47.490;8.736;2024-01-07T16:11:34;10.90;;;4.70;;
72117;SDS011;59992;47.490;8.736;2024-01-07T16:14:24;10.00;;;4.90;;
72117;SDS011;59992;47.490;8.736;2024-01-07T16:17:15;13.70;;;7.60;;
72117;SDS011;59992;47.490;8.736;2024-01-07T16:20:06;17.00;;;8.80;;
72117;SDS011;59992;47.490;8.736;2024-01-07T16:22:58;13.30;;;6.90;;
72117;SDS011;59992;47.490;8.736;2024-01-07T16:25:49;13.70;;;7.30;;
72117;SDS011;59992;47.490;8.736;2024-01-07T16:28:39;16.30;;;6.80;;
72117;SDS011;59992;47.490;8.736;2024-01-07T16:31:29;11.20;;;5.40;;
72117;SDS011;59992;47.490;8.736;2024-01-07T16:34:22;12.40;;;6.10;;
72117;SDS011;59992;47.490;8.736;2024-01-07T16:37:12;15.00;;;6.20;;
72117;SDS011;59992;47.490;8.736;2024-01-07T16:40:03;14.00;;;6.40;;
72117;SDS011;59992;47.490;8.736;2024-01-07T16:42:55;12.50;;;6.30;;
72117;SDS011;59992;47.490;8.736;2024-01-07T16:45:46;12.30;;;7.20;;
72117;SDS011;59992;47.490;8.736;2024-01-07T16:48:37;10.40;;;5.60;;
72117;SDS011;59992;47.490;8.736;2024-01-07T16:51:27;11.70;;;5.10;;
72117;SDS011;59992;47.490;8.736;2024-01-07T16:54:17;12.00;;;6.60;;
72117;SDS011;59992;47.490;8.736;2024-01-07T16:57:08;12.30;;;6.40;;
72117;SDS011;59992;47.490;8.736;2024-01-07T16:59:58;11.60;;;6.50;;
72117;SDS011;59992;47.490;8.736;2024-01-07T17:02:50;14.10;;;7.20;;
72117;SDS011;59992;47.490;8.736;2024-01-07T17:05:42;13.20;;;6.00;;
72117;SDS011;59992;47.490;8.736;2024-01-07T17:08:32;14.20;;;7.40;;